Cielo Di Capalbio — D5AQ3 — position and weather

sailwx.info

Track history (hours):
 
Tides and Currents Weather Stations Pressure Air Temp Water Temp Dewpoint Dewpoint Depression Visibility Wind Speed Wind Dir Waves Ship Positions

Cielo Di Capalbio

Last reported at 2017-Nov-17 05:44 UTC. Time now 2017-Nov-24 16:45 UTC.
Position S 25°18' W 046°57'.

Length 183 m; draft 10.8 m.

Type: Cargo ship. MMSI: 636015422.

Date/timePositionNaut miles runAvg speedWind from/ knotsBaromVisibWave heightAir tempDewpointWater temp
2017-Nov-17 05:44S 25°18' W 046°57'311.5
2017-Nov-17 05:29S 25°17' W 046°54'911.6
2017-Nov-17 04:45S 25°14' W 046°45'611.8
2017-Nov-17 04:15S 25°13' W 046°39'511.7
2017-Nov-17 03:49S 25°11' W 046°34'411.6
2017-Nov-17 03:29S 25°10' W 046°30'811.5
2017-Nov-17 02:49S 25°08' W 046°21'411.8
2017-Nov-17 02:26S 25°07' W 046°17'511.8
2017-Nov-17 01:59S 25°05' W 046°11'612.2
2017-Nov-17 01:30S 25°03' W 046°05'1012.2
2017-Nov-17 00:43S 25°01' W 045°55'312.3
2017-Nov-17 00:29S 24°60' W 045°52'812.5
2017-Nov-16 23:50S 24°57' W 045°43'  
Track history (hours):
 
Tides and Currents Weather Stations Pressure Air Temp Water Temp Dewpoint Dewpoint Depression Visibility Wind Speed Wind Dir Waves Ship Positions

Cielo Di Capalbio

Last reported at 2017-Nov-17 05:44 UTC. Time now 2017-Nov-24 16:45 UTC.
Position S 25°18' W 046°57'.

Length 183 m; draft 10.8 m.

Type: Cargo ship. MMSI: 636015422.

Date/timePositionNaut miles runAvg speedWind from/ knotsBaromVisibWave heightAir tempDewpointWater temp
2017-Nov-17 05:44S 25°18' W 046°57'311.5
2017-Nov-17 05:29S 25°17' W 046°54'911.6
2017-Nov-17 04:45S 25°14' W 046°45'611.8
2017-Nov-17 04:15S 25°13' W 046°39'511.7
2017-Nov-17 03:49S 25°11' W 046°34'411.6
2017-Nov-17 03:29S 25°10' W 046°30'811.5
2017-Nov-17 02:49S 25°08' W 046°21'411.8
2017-Nov-17 02:26S 25°07' W 046°17'511.8
2017-Nov-17 01:59S 25°05' W 046°11'612.2
2017-Nov-17 01:30S 25°03' W 046°05'1012.2
2017-Nov-17 00:43S 25°01' W 045°55'312.3
2017-Nov-17 00:29S 24°60' W 045°52'812.5
2017-Nov-16 23:50S 24°57' W 045°43'  

Dump ship's entire track history